Palma de Mallorca Aeropuerto en Baleares

latitud = 39° 33' 39''N | longitud = 002° 44' 12''E
8 metros sobre el nivel del mar |

Fecha, hora, temperatura, viento dirección y velocidad, humedad y presión.

  • 22-09-2018 23:00:00 | 22.60°C | Norte |4.00 km/h | 88.00% | 1022.10 hPa
  • 22-09-2018 22:00:00 | 24.60°C | Oeste |6.00 km/h | 80.00% | 1022.10 hPa
  • 22-09-2018 21:00:00 | 25.50°C | Sudoeste |11.00 km/h | 77.00% | 1021.70 hPa
  • 22-09-2018 20:00:00 | 25.90°C | Sudoeste |15.00 km/h | 75.00% | 1021.30 hPa
  • 22-09-2018 19:00:00 | 27.00°C | Sudoeste |18.00 km/h | 70.00% | 1020.80 hPa
  • 22-09-2018 18:00:00 | 27.80°C | Sudoeste |18.00 km/h | 67.00% | 1021.10 hPa
  • 22-09-2018 17:00:00 | 28.20°C | Sudoeste |22.00 km/h | 66.00% | 1021.20 hPa
  • 22-09-2018 16:00:00 | 28.40°C | Sudoeste |22.00 km/h | 65.00% | 1021.30 hPa
  • 22-09-2018 15:00:00 | 28.60°C | Sudoeste |23.00 km/h | 60.00% | 1021.50 hPa
  • 22-09-2018 14:00:00 | 28.50°C | Sudoeste |18.00 km/h | 61.00% | 1022.00 hPa
  • 22-09-2018 13:00:00 | 28.60°C | Sudoeste |16.00 km/h | 59.00% | 1022.40 hPa
  • 22-09-2018 12:00:00 | 28.90°C | Oeste |4.00 km/h | 57.00% | 1022.40 hPa
  • 22-09-2018 11:00:00 | 27.90°C | Sudeste |2.00 km/h | 61.00% | 1022.30 hPa
  • 22-09-2018 10:00:00 | 24.20°C | Nordeste |5.00 km/h | 73.00% | 1022.20 hPa
  • 22-09-2018 09:00:00 | 20.50°C | Norte |5.00 km/h | 95.00% | 1021.70 hPa
  • 22-09-2018 08:00:00 | 19.00°C | Norte |5.00 km/h | 97.00% | 1021.40 hPa
  • 22-09-2018 07:00:00 | 19.00°C | Norte |3.00 km/h | 97.00% | 1020.70 hPa
  • 22-09-2018 06:00:00 | 19.70°C | Este |5.00 km/h | 96.00% | 1020.40 hPa
  • 22-09-2018 05:00:00 | 19.90°C | Nordeste |4.00 km/h | 95.00% | 1020.30 hPa
  • 22-09-2018 04:00:00 | 20.70°C | Norte |3.00 km/h | 96.00% | 1020.20 hPa
  • 22-09-2018 03:00:00 | 20.90°C | Nordeste |7.00 km/h | 94.00% | 1020.30 hPa
  • 22-09-2018 02:00:00 | 21.00°C | Norte |5.00 km/h | 93.00% | 1020.20 hPa
  • 22-09-2018 01:00:00 | 21.30°C | Nordeste |6.00 km/h | 94.00% | 1020.00 hPa
  • 22-09-2018 00:00:00 | 22.00°C | Norte |8.00 km/h | 90.00% | 1019.70 hPa
    • Datos gráficos mensuales de Palma de Mallorca Aeropuerto: